createdAt,value
2023-02-26T00:00:46.408Z,2.75
2023-02-26T00:06:56.141Z,2.58
2023-02-26T00:10:07.781Z,2.83
2023-02-26T00:13:12.711Z,1.08
2023-02-26T00:16:30.677Z,2.28
2023-02-26T00:19:35.184Z,2.67
2023-02-26T00:22:40.827Z,2.08
2023-02-26T00:25:46.625Z,1.90
2023-02-26T00:28:51.313Z,2.40
2023-02-26T00:31:56.144Z,2.95
2023-02-26T00:35:01.793Z,1.70
2023-02-26T00:38:10.557Z,1.25
2023-02-26T00:41:16.836Z,1.38
2023-02-26T00:44:22.339Z,2.33
2023-02-26T00:47:39.668Z,1.70
2023-02-26T00:50:54.148Z,1.73
2023-02-26T00:54:11.061Z,6.53
2023-02-26T00:57:16.366Z,1.52
2023-02-26T01:00:22.362Z,1.33
2023-02-26T01:03:26.887Z,2.50
2023-02-26T01:06:37.678Z,1.55
2023-02-26T01:09:44.131Z,2.10
2023-02-26T01:12:50.667Z,3.10
2023-02-26T01:16:09.495Z,4.07
2023-02-26T01:19:27.697Z,2.70
2023-02-26T01:22:40.090Z,4.32
2023-02-26T01:25:51.224Z,5.18
2023-02-26T01:28:58.823Z,1.77
2023-02-26T01:32:14.017Z,1.08
2023-02-26T01:35:33.848Z,0.60
2023-02-26T01:38:50.316Z,1.13
2023-02-26T01:42:07.452Z,2.83
2023-02-26T01:45:19.367Z,2.50
2023-02-26T01:48:37.230Z,1.75
2023-02-26T01:51:52.396Z,2.10
2023-02-26T01:54:56.290Z,1.77
2023-02-26T02:01:09.228Z,3.90
2023-02-26T02:04:17.261Z,3.78
2023-02-26T02:07:21.339Z,3.35
2023-02-26T02:10:25.272Z,5.22
2023-02-26T02:14:04.438Z,3.08
2023-02-26T02:17:25.264Z,7.00
2023-02-26T02:21:07.942Z,4.07
2023-02-26T02:24:20.573Z,3.13
2023-02-26T02:27:35.719Z,4.32
2023-02-26T02:30:58.823Z,5.05
2023-02-26T02:34:14.049Z,3.80
2023-02-26T02:37:24.543Z,4.47
2023-02-26T02:40:33.422Z,4.97
2023-02-26T02:43:42.391Z,3.58
2023-02-26T02:46:56.966Z,4.30
2023-02-26T02:50:08.644Z,1.77
2023-02-26T02:53:18.595Z,3.53
2023-02-26T02:56:30.181Z,2.35
2023-02-26T02:59:40.927Z,2.00
2023-02-26T03:02:55.278Z,2.90
2023-02-26T03:05:59.289Z,2.20
2023-02-26T03:09:06.002Z,3.35
2023-02-26T03:12:10.320Z,2.38
2023-02-26T03:15:16.552Z,1.00
2023-02-26T03:18:41.885Z,2.80
2023-02-26T03:21:55.466Z,3.13
2023-02-26T03:25:08.059Z,2.38
2023-02-26T03:28:19.904Z,2.03
2023-02-26T03:31:31.893Z,1.17
2023-02-26T03:34:48.578Z,2.58
2023-02-26T03:37:58.823Z,2.13
2023-02-26T03:41:10.110Z,2.28
2023-02-26T03:44:24.573Z,3.15
2023-02-26T03:47:30.886Z,3.42
2023-02-26T03:50:42.761Z,1.92
2023-02-26T03:53:54.125Z,2.15
2023-02-26T03:56:58.042Z,4.47
2023-02-26T04:00:02.331Z,4.13
2023-02-26T04:03:15.696Z,2.90
2023-02-26T04:06:21.518Z,4.20
2023-02-26T04:09:26.975Z,1.88
2023-02-26T04:12:31.057Z,2.03
2023-02-26T04:15:37.587Z,4.93
2023-02-26T04:18:43.345Z,3.38
2023-02-26T04:21:49.356Z,2.58
2023-02-26T04:24:53.165Z,3.00
2023-02-26T04:27:57.704Z,1.35
2023-02-26T04:31:02.229Z,2.67
2023-02-26T04:34:09.190Z,3.00
2023-02-26T04:37:14.769Z,3.33
2023-02-26T04:40:19.513Z,1.92
2023-02-26T04:43:24.214Z,2.75
2023-02-26T04:46:28.611Z,3.03
2023-02-26T04:49:32.430Z,1.75
2023-02-26T04:52:38.123Z,3.67
2023-02-26T04:55:43.335Z,2.45
2023-02-26T04:58:48.511Z,3.40
2023-02-26T05:01:52.213Z,1.42
2023-02-26T05:04:56.130Z,2.38
2023-02-26T05:08:01.663Z,4.15
2023-02-26T05:11:05.574Z,2.50
2023-02-26T05:14:09.437Z,2.55
2023-02-26T05:17:15.732Z,4.65
2023-02-26T05:20:19.585Z,3.08
2023-02-26T05:26:28.503Z,4.32
2023-02-26T05:29:33.063Z,2.83
2023-02-26T05:32:37.931Z,4.53
2023-02-26T05:35:41.699Z,2.25
2023-02-26T05:41:51.957Z,0.98
2023-02-26T05:44:55.516Z,3.10
2023-02-26T05:47:58.977Z,2.63
2023-02-26T06:00:16.764Z,1.38
2023-02-26T06:03:20.286Z,1.45
2023-02-26T06:06:27.298Z,1.63
2023-02-26T06:09:36.996Z,4.85
2023-02-26T06:12:41.201Z,1.77
2023-02-26T06:15:45.128Z,2.50
2023-02-26T06:18:50.352Z,2.95
2023-02-26T06:21:54.452Z,3.10
2023-02-26T06:24:59.587Z,3.13
2023-02-26T06:28:07.941Z,2.22
2023-02-26T06:31:11.619Z,3.53
2023-02-26T06:34:15.326Z,2.47
2023-02-26T06:37:18.896Z,2.95
2023-02-26T06:40:24.414Z,3.95
2023-02-26T06:43:29.114Z,3.17
2023-02-26T06:46:32.938Z,4.53
2023-02-26T06:52:39.967Z,6.97
2023-02-26T06:55:48.075Z,4.75
2023-02-26T06:58:56.692Z,3.90
2023-02-26T07:02:01.340Z,3.33
2023-02-26T07:05:05.626Z,3.80
2023-02-26T07:08:09.628Z,4.15
2023-02-26T07:14:23.286Z,1.83
2023-02-26T07:17:49.554Z,6.25
2023-02-26T07:21:06.652Z,7.35
2023-02-26T07:24:14.266Z,4.93
2023-02-26T07:27:20.954Z,4.75
2023-02-26T07:30:27.037Z,3.35
2023-02-26T07:33:32.777Z,4.47
2023-02-26T07:36:36.751Z,6.25
2023-02-26T07:46:02.240Z,2.60
2023-02-26T07:53:27.950Z,3.28
2023-02-26T07:57:14.578Z,2.70
2023-02-26T08:00:24.589Z,1.85
2023-02-26T08:03:29.829Z,5.28
2023-02-26T08:06:35.727Z,2.33
2023-02-26T08:09:41.172Z,5.63
2023-02-26T08:13:12.811Z,9.23
2023-02-26T08:16:21.051Z,4.68
2023-02-26T08:19:28.287Z,3.35
2023-02-26T08:22:32.835Z,4.38
2023-02-26T08:25:37.080Z,3.10
2023-02-26T08:28:42.118Z,3.00
2023-02-26T08:31:50.754Z,3.67
2023-02-26T08:34:55.708Z,1.75
2023-02-26T08:38:00.640Z,3.50
2023-02-26T08:41:15.049Z,6.13
2023-02-26T08:44:21.943Z,3.00
2023-02-26T08:48:03.219Z,2.85
2023-02-26T08:51:33.771Z,3.58
2023-02-26T08:54:47.613Z,2.35
2023-02-26T08:58:13.234Z,1.73
2023-02-26T09:01:25.130Z,2.67
2023-02-26T09:04:31.468Z,4.88
2023-02-26T09:07:35.608Z,6.82
2023-02-26T09:10:43.102Z,2.38
2023-02-26T09:14:12.197Z,5.35
2023-02-26T09:17:16.421Z,3.55
2023-02-26T09:23:32.611Z,3.22
2023-02-26T09:26:40.006Z,4.22
2023-02-26T09:29:46.505Z,4.85
2023-02-26T09:33:00.772Z,3.08
2023-02-26T09:36:33.749Z,5.93
2023-02-26T09:39:48.846Z,1.45
2023-02-26T09:43:13.388Z,2.72
2023-02-26T09:46:38.637Z,2.25
2023-02-26T09:50:00.244Z,5.60
2023-02-26T09:53:17.285Z,1.98
2023-02-26T09:56:27.826Z,2.00
2023-02-26T09:59:35.276Z,4.30
2023-02-26T10:02:55.321Z,2.75
2023-02-26T10:06:24.810Z,2.17
2023-02-26T10:09:53.530Z,4.55
2023-02-26T10:13:28.057Z,2.70
2023-02-26T10:16:55.667Z,2.90
2023-02-26T10:20:23.442Z,3.50
2023-02-26T10:23:49.852Z,2.08
2023-02-26T10:27:05.833Z,3.35
2023-02-26T10:30:23.464Z,2.15
2023-02-26T10:33:43.858Z,4.38
2023-02-26T10:37:00.791Z,3.65
2023-02-26T10:40:16.252Z,2.70
2023-02-26T10:43:47.092Z,3.08
2023-02-26T10:47:03.495Z,4.40
2023-02-26T10:50:17.613Z,5.57
2023-02-26T10:53:25.323Z,2.33
2023-02-26T10:56:32.949Z,2.13
2023-02-26T10:59:39.174Z,4.18
2023-02-26T11:02:47.152Z,2.33
2023-02-26T11:05:51.316Z,2.40
2023-02-26T11:12:32.555Z,2.00
2023-02-26T11:15:39.344Z,3.00
2023-02-26T11:18:49.699Z,4.78
2023-02-26T11:21:54.182Z,1.35
2023-02-26T11:25:00.441Z,2.78
2023-02-26T11:28:07.989Z,3.30
2023-02-26T11:31:19.425Z,2.60
2023-02-26T11:34:52.434Z,4.45
2023-02-26T11:38:04.480Z,3.88
2023-02-26T11:41:39.598Z,1.98
2023-02-26T11:44:54.062Z,2.17
2023-02-26T11:48:07.863Z,1.92
2023-02-26T11:51:18.849Z,3.92
2023-02-26T11:54:30.360Z,3.53
2023-02-26T11:57:35.773Z,2.42
2023-02-26T12:00:42.267Z,3.63
2023-02-26T12:03:51.154Z,2.60
2023-02-26T12:06:57.968Z,2.50
2023-02-26T12:10:01.479Z,1.25
2023-02-26T12:13:20.945Z,2.10
2023-02-26T12:16:38.490Z,1.25
2023-02-26T12:19:53.660Z,1.92
2023-02-26T12:23:21.332Z,0.80
2023-02-26T12:26:35.985Z,2.22
2023-02-26T12:30:04.482Z,2.35
2023-02-26T12:33:27.024Z,2.75
2023-02-26T12:37:03.622Z,2.35
2023-02-26T12:40:31.080Z,1.95
2023-02-26T12:43:47.478Z,2.60
2023-02-26T12:47:26.092Z,3.20
2023-02-26T12:50:58.349Z,2.28
2023-02-26T12:54:42.753Z,2.72
2023-02-26T12:58:22.356Z,5.57
2023-02-26T13:02:01.082Z,3.83
2023-02-26T13:05:38.810Z,2.38
2023-02-26T13:09:01.779Z,1.83
2023-02-26T13:12:36.908Z,2.80
2023-02-26T13:16:20.330Z,3.00
2023-02-26T13:19:47.218Z,2.97
2023-02-26T13:23:08.335Z,1.60
2023-02-26T13:26:27.994Z,3.15
2023-02-26T13:30:04.134Z,1.52
2023-02-26T13:33:40.974Z,4.43
2023-02-26T13:36:57.641Z,2.25
2023-02-26T13:40:45.552Z,9.73
2023-02-26T13:44:20.563Z,6.25
2023-02-26T13:48:22.028Z,3.05
2023-02-26T13:51:41.037Z,5.25
2023-02-26T13:54:54.885Z,1.15
2023-02-26T13:58:44.499Z,2.22
2023-02-26T14:05:35.928Z,2.58
2023-02-26T14:08:51.722Z,2.60
2023-02-26T14:12:04.144Z,2.15
2023-02-26T14:15:34.431Z,4.03
2023-02-26T14:18:51.394Z,3.95
2023-02-26T14:22:32.740Z,2.22
2023-02-26T14:25:56.779Z,3.65
2023-02-26T14:29:20.024Z,1.45
2023-02-26T14:32:33.506Z,2.47
2023-02-26T14:35:45.827Z,1.85
2023-02-26T14:39:23.780Z,2.80
2023-02-26T14:42:48.536Z,8.10
2023-02-26T14:45:53.718Z,3.70
2023-02-26T14:49:01.406Z,2.00
2023-02-26T14:53:12.185Z,5.82
2023-02-26T14:56:28.588Z,2.75
2023-02-26T15:00:14.383Z,3.90
2023-02-26T15:04:30.609Z,6.28
2023-02-26T15:08:15.027Z,3.78
2023-02-26T15:12:03.309Z,3.40
2023-02-26T15:16:01.568Z,1.85
2023-02-26T15:19:44.316Z,1.42
2023-02-26T15:23:15.467Z,4.47
2023-02-26T15:26:32.146Z,2.78
2023-02-26T15:29:42.524Z,2.83
2023-02-26T15:32:47.763Z,3.78
2023-02-26T15:35:56.704Z,6.47
2023-02-26T15:39:04.713Z,3.55
2023-02-26T15:42:15.458Z,6.72
2023-02-26T15:45:28.316Z,2.17
2023-02-26T15:48:43.440Z,2.35
2023-02-26T15:51:48.533Z,3.30
2023-02-26T15:54:59.197Z,3.22
2023-02-26T15:58:09.244Z,3.90
2023-02-26T16:01:43.844Z,3.45
2023-02-26T16:05:22.893Z,2.67
2023-02-26T16:08:34.067Z,3.45
2023-02-26T16:12:04.067Z,4.30
2023-02-26T16:15:59.001Z,5.50
2023-02-26T16:19:47.991Z,3.88
2023-02-26T16:23:30.486Z,2.83
2023-02-26T16:26:54.471Z,6.45
2023-02-26T16:30:26.884Z,4.07
2023-02-26T16:33:49.112Z,3.67
2023-02-26T16:37:51.401Z,5.03
2023-02-26T16:41:13.701Z,2.58
2023-02-26T16:45:15.874Z,2.90
2023-02-26T16:48:54.666Z,5.10
2023-02-26T16:52:41.910Z,8.05
2023-02-26T16:56:02.832Z,6.60
2023-02-26T16:59:54.267Z,5.28
2023-02-26T17:03:35.470Z,5.05
2023-02-26T17:07:10.407Z,5.63
2023-02-26T17:10:40.320Z,7.55
2023-02-26T17:14:37.547Z,3.53
2023-02-26T17:18:09.958Z,7.55
2023-02-26T17:21:45.487Z,6.95
2023-02-26T17:25:35.814Z,7.85
2023-02-26T17:29:10.124Z,5.25
2023-02-26T17:32:36.973Z,5.00
2023-02-26T17:36:02.804Z,4.47
2023-02-26T17:39:21.285Z,3.15
2023-02-26T17:42:42.018Z,3.58
2023-02-26T17:45:51.315Z,6.47
2023-02-26T17:48:55.888Z,7.22
2023-02-26T17:52:00.444Z,4.22
2023-02-26T17:55:10.836Z,9.85
2023-02-26T17:58:19.921Z,13.32
2023-02-26T18:01:53.706Z,7.28
2023-02-26T18:05:00.444Z,5.38
2023-02-26T18:08:36.232Z,6.63
2023-02-26T18:11:58.541Z,4.70
2023-02-26T18:15:13.194Z,8.55
2023-02-26T18:18:37.411Z,5.95
2023-02-26T18:21:44.576Z,6.82
2023-02-26T18:24:50.957Z,5.15
2023-02-26T18:28:01.202Z,9.07
2023-02-26T18:31:11.163Z,6.13
2023-02-26T18:34:21.319Z,6.72
2023-02-26T18:37:30.455Z,8.60
2023-02-26T18:41:23.928Z,10.90
2023-02-26T18:44:42.182Z,7.50
2023-02-26T18:48:18.941Z,9.80
2023-02-26T18:51:44.314Z,8.40
2023-02-26T18:55:01.313Z,10.55
2023-02-26T18:58:34.026Z,10.10
2023-02-26T19:01:55.387Z,10.50
2023-02-26T19:05:15.808Z,5.97
2023-02-26T19:08:37.117Z,8.23
2023-02-26T19:11:46.434Z,13.13
2023-02-26T19:15:24.920Z,11.77
2023-02-26T19:19:05.472Z,8.20
2023-02-26T19:22:20.104Z,7.07
2023-02-26T19:25:58.930Z,12.73
2023-02-26T19:29:21.910Z,12.93
2023-02-26T19:32:30.335Z,12.93
2023-02-26T19:35:38.605Z,9.52
2023-02-26T19:39:08.830Z,7.93
2023-02-26T19:42:41.020Z,12.13
2023-02-26T19:46:04.616Z,9.97
2023-02-26T19:49:38.184Z,10.77
2023-02-26T19:52:49.469Z,10.48
2023-02-26T19:56:00.163Z,11.85
2023-02-26T19:59:09.302Z,7.15
2023-02-26T20:02:15.881Z,8.50
2023-02-26T20:05:55.994Z,9.30
2023-02-26T20:09:14.217Z,12.93
2023-02-26T20:12:31.680Z,10.38
2023-02-26T20:15:47.321Z,16.35
2023-02-26T20:18:55.411Z,15.27
2023-02-26T20:22:00.377Z,14.40
2023-02-26T20:25:09.661Z,18.92
2023-02-26T20:28:22.551Z,15.25
2023-02-26T20:31:27.245Z,11.32
2023-02-26T20:34:32.351Z,13.25
2023-02-26T20:37:36.255Z,12.07
2023-02-26T20:40:43.030Z,16.05
2023-02-26T20:43:47.061Z,12.65
2023-02-26T20:50:27.617Z,14.70
2023-02-26T20:53:50.814Z,11.25
2023-02-26T20:57:24.751Z,9.63
2023-02-26T21:00:53.600Z,12.77
2023-02-26T21:04:23.244Z,10.57
2023-02-26T21:07:58.392Z,11.23
2023-02-26T21:11:19.966Z,11.38
2023-02-26T21:14:55.742Z,8.90
2023-02-26T21:18:39.488Z,10.98
2023-02-26T21:22:09.359Z,14.90
2023-02-26T21:25:50.911Z,12.80
2023-02-26T21:29:17.274Z,13.68
2023-02-26T21:33:13.976Z,10.80
2023-02-26T21:36:42.441Z,12.25
2023-02-26T21:40:09.750Z,15.25
2023-02-26T21:43:35.535Z,13.48
2023-02-26T21:47:04.743Z,8.90
2023-02-26T21:50:48.229Z,12.23
2023-02-26T21:54:28.500Z,10.70
2023-02-26T21:58:17.182Z,12.80
2023-02-26T22:01:40.198Z,14.07
2023-02-26T22:05:16.640Z,16.38
2023-02-26T22:12:12.997Z,8.60
2023-02-26T22:15:47.461Z,10.55
2023-02-26T22:23:06.577Z,11.98
2023-02-26T22:26:26.141Z,12.43
2023-02-26T22:29:31.180Z,11.15
2023-02-26T22:32:56.857Z,15.55
2023-02-26T22:36:04.392Z,8.13
2023-02-26T22:39:09.025Z,9.15
2023-02-26T22:45:22.704Z,12.63
2023-02-26T22:48:29.265Z,8.85
2023-02-26T22:51:46.273Z,7.40
2023-02-26T22:55:03.810Z,9.10
2023-02-26T22:58:13.152Z,9.68
2023-02-26T23:01:48.480Z,14.20
2023-02-26T23:05:07.668Z,12.07
2023-02-26T23:08:22.128Z,11.88
2023-02-26T23:11:38.605Z,13.27
2023-02-26T23:14:54.746Z,10.75
2023-02-26T23:18:00.581Z,6.63
2023-02-26T23:21:19.831Z,11.82
2023-02-26T23:24:38.176Z,12.90
2023-02-26T23:27:45.093Z,10.60
2023-02-26T23:30:55.107Z,9.10
2023-02-26T23:34:00.906Z,11.38
2023-02-26T23:37:11.046Z,11.68
2023-02-26T23:40:24.585Z,9.55
2023-02-26T23:43:30.244Z,16.27
2023-02-26T23:46:38.366Z,13.02
2023-02-26T23:49:43.488Z,12.93
2023-02-26T23:52:49.342Z,9.32
2023-02-26T23:55:58.999Z,9.50
2023-02-26T23:59:03.071Z,9.95
